createdAt,value
2023-05-19T00:01:29.937Z,101554.47
2023-05-19T00:06:34.111Z,101561.50
2023-05-19T00:11:38.111Z,101555.25
2023-05-19T00:16:43.242Z,101553.75
2023-05-19T00:21:46.047Z,101556.84
2023-05-19T00:26:48.818Z,101555.81
2023-05-19T00:31:52.971Z,101553.75
2023-05-19T00:36:55.786Z,101558.09
2023-05-19T00:41:58.556Z,101558.78
2023-05-19T00:47:02.822Z,101556.84
2023-05-19T00:52:07.485Z,101564.53
2023-05-19T00:57:10.420Z,101555.47
2023-05-19T01:02:15.037Z,101558.75
2023-05-19T01:07:18.716Z,101551.66
2023-05-19T01:12:21.539Z,101560.97
2023-05-19T01:17:34.316Z,101552.19
2023-05-19T01:22:57.936Z,101553.19
2023-05-19T01:28:30.796Z,101547.28
2023-05-19T01:33:35.123Z,101549.94
2023-05-19T01:38:39.410Z,101551.16
2023-05-19T01:43:42.430Z,101552.97
2023-05-19T01:48:46.741Z,101547.53
2023-05-19T01:53:49.646Z,101542.88
2023-05-19T01:58:54.715Z,101542.25
2023-05-19T02:04:18.523Z,101539.31
2023-05-19T02:09:26.655Z,101544.22
2023-05-19T02:14:31.975Z,101541.50
2023-05-19T02:19:39.194Z,101544.69
2023-05-19T02:24:42.522Z,101539.94
2023-05-19T02:29:45.565Z,101539.91
2023-05-19T02:34:49.680Z,101533.66
2023-05-19T02:39:52.458Z,101532.59
2023-05-19T02:44:55.952Z,101531.94
2023-05-19T02:50:00.037Z,101528.84
2023-05-19T02:55:02.832Z,101532.34
2023-05-19T03:00:06.900Z,101534.50
2023-05-19T03:05:11.536Z,101533.63
2023-05-19T03:10:14.351Z,101529.94
2023-05-19T03:15:18.694Z,101528.19
2023-05-19T03:20:23.009Z,101530.41
2023-05-19T03:25:27.045Z,101531.34
2023-05-19T03:30:30.076Z,101540.47
2023-05-19T03:35:46.536Z,101537.25
2023-05-19T03:40:50.087Z,101534.47
2023-05-19T03:45:53.533Z,101535.91
2023-05-19T03:51:28.637Z,101540.72
2023-05-19T03:56:35.654Z,101545.38
2023-05-19T04:01:38.441Z,101553.81
2023-05-19T04:06:42.636Z,101558.31
2023-05-19T04:11:46.066Z,101566.53
2023-05-19T04:16:48.862Z,101563.75
2023-05-19T04:21:53.034Z,101569.25
2023-05-19T04:26:56.222Z,101571.41
2023-05-19T04:31:59.098Z,101573.50
2023-05-19T04:37:04.293Z,101582.81
2023-05-19T04:42:08.973Z,101565.84
2023-05-19T04:47:12.402Z,101565.69
2023-05-19T04:52:21.715Z,101562.81
2023-05-19T04:57:24.675Z,101550.97
2023-05-19T05:02:28.333Z,101549.47
2023-05-19T05:07:32.743Z,101558.91
2023-05-19T05:12:36.457Z,101555.94
2023-05-19T05:17:39.940Z,101554.03
2023-05-19T05:22:44.874Z,101554.53
2023-05-19T05:27:49.145Z,101562.53
2023-05-19T05:32:52.151Z,101565.69
2023-05-19T05:38:11.408Z,101552.00
2023-05-19T05:43:14.578Z,101565.91
2023-05-19T05:48:23.991Z,101566.44
2023-05-19T05:53:32.044Z,101558.97
2023-05-19T05:58:37.684Z,101555.19
2023-05-19T06:03:41.734Z,101554.50
2023-05-19T06:08:47.083Z,101545.88
2023-05-19T06:13:50.191Z,101560.34
2023-05-19T06:19:10.199Z,101553.31
2023-05-19T06:24:14.424Z,101558.66
2023-05-19T06:29:18.113Z,101553.66
2023-05-19T06:34:21.314Z,101541.34
2023-05-19T06:39:26.253Z,101538.28
2023-05-19T06:44:29.483Z,101539.41
2023-05-19T06:49:32.337Z,101532.84
2023-05-19T06:54:36.580Z,101540.16
2023-05-19T06:59:40.912Z,101535.91
2023-05-19T07:04:44.293Z,101525.66
2023-05-19T07:09:52.763Z,101524.31
2023-05-19T07:14:57.258Z,101530.38
2023-05-19T07:20:01.550Z,101528.59
2023-05-19T07:25:06.541Z,101517.63
2023-05-19T07:30:10.431Z,101510.91
2023-05-19T07:35:13.217Z,101522.16
2023-05-19T07:40:17.326Z,101515.09
2023-05-19T07:45:20.118Z,101514.53
2023-05-19T07:50:23.141Z,101514.84
2023-05-19T07:55:27.273Z,101499.88
2023-05-19T08:00:30.067Z,101500.81
2023-05-19T08:05:32.857Z,101496.59
2023-05-19T08:10:37.020Z,101494.00
2023-05-19T08:15:41.137Z,101492.25
2023-05-19T08:20:44.020Z,101499.53
2023-05-19T08:25:48.117Z,101499.84
2023-05-19T08:30:52.254Z,101501.09
2023-05-19T08:35:55.419Z,101498.03
2023-05-19T08:40:59.630Z,101486.91
2023-05-19T08:46:02.446Z,101477.56
2023-05-19T08:51:10.279Z,101475.16
2023-05-19T08:56:16.353Z,101456.34
2023-05-19T09:01:20.943Z,101457.88
2023-05-19T09:06:24.099Z,101443.41
2023-05-19T09:11:28.290Z,101435.91
2023-05-19T09:16:32.475Z,101421.41
2023-05-19T09:21:35.309Z,101412.19
2023-05-19T09:26:40.301Z,101410.66
2023-05-19T09:31:50.556Z,101403.13
2023-05-19T09:36:54.224Z,101414.25
2023-05-19T09:41:58.939Z,101396.81
2023-05-19T09:47:02.201Z,101379.56
2023-05-19T09:52:05.849Z,101355.03
2023-05-19T09:57:09.998Z,101348.81
2023-05-19T10:02:18.483Z,101345.59
2023-05-19T10:07:22.144Z,101337.63
2023-05-19T10:12:27.225Z,101333.22
2023-05-19T10:17:30.082Z,101318.63
2023-05-19T10:22:32.855Z,101338.28
2023-05-19T10:27:38.748Z,101324.84
2023-05-19T10:32:44.001Z,101322.75
2023-05-19T10:37:50.980Z,101326.75
2023-05-19T10:43:16.917Z,101320.78
2023-05-19T10:48:21.540Z,101318.56
2023-05-19T10:53:31.828Z,101327.25
2023-05-19T10:58:40.209Z,101329.28
2023-05-19T11:03:47.596Z,101323.34
2023-05-19T11:08:54.517Z,101309.09
2023-05-19T11:14:01.269Z,101315.06
2023-05-19T11:19:04.166Z,101310.13
2023-05-19T11:24:09.226Z,101306.41
2023-05-19T11:29:13.630Z,101301.13
2023-05-19T11:34:17.308Z,101298.53
2023-05-19T11:39:20.533Z,101280.00
2023-05-19T11:44:24.724Z,101298.72
2023-05-19T11:49:29.353Z,101282.31
2023-05-19T11:54:33.357Z,101288.91
2023-05-19T11:59:43.767Z,101279.63
2023-05-19T12:04:47.015Z,101283.59
2023-05-19T12:09:50.861Z,101278.53
2023-05-19T12:14:54.986Z,101266.72
2023-05-19T12:19:57.823Z,101281.59
2023-05-19T12:25:01.806Z,101282.53
2023-05-19T12:30:07.002Z,101268.00
2023-05-19T12:35:10.712Z,101280.53
2023-05-19T12:40:17.505Z,101257.53
2023-05-19T12:45:25.671Z,101247.19
2023-05-19T12:50:31.481Z,101253.78
2023-05-19T12:55:39.405Z,101253.84
2023-05-19T13:00:44.940Z,101251.78
2023-05-19T13:05:49.011Z,101248.44
2023-05-19T13:10:51.901Z,101234.28
2023-05-19T13:15:56.490Z,101237.66
2023-05-19T13:20:59.292Z,101246.31
2023-05-19T13:26:04.862Z,101249.34
2023-05-19T13:31:09.021Z,101245.38
2023-05-19T13:36:11.895Z,101239.03
2023-05-19T13:41:16.065Z,101241.25
2023-05-19T13:46:26.548Z,101238.78
2023-05-19T13:51:35.772Z,101228.88
2023-05-19T13:56:38.672Z,101228.50
2023-05-19T14:01:43.461Z,101226.25
2023-05-19T14:06:46.659Z,101226.50
2023-05-19T14:11:49.630Z,101226.94
2023-05-19T14:16:53.834Z,101226.78
2023-05-19T14:21:56.898Z,101214.78
2023-05-19T14:26:59.651Z,101226.63
2023-05-19T14:32:03.982Z,101213.84
2023-05-19T14:37:07.111Z,101212.00
2023-05-19T14:42:09.904Z,101213.25
2023-05-19T14:47:14.130Z,101223.84
2023-05-19T14:52:17.820Z,101224.47
2023-05-19T14:57:20.633Z,101227.84
2023-05-19T15:02:25.064Z,101222.53
2023-05-19T15:07:28.389Z,101215.94
2023-05-19T15:12:31.210Z,101211.63
2023-05-19T15:17:35.495Z,101208.53
2023-05-19T15:22:38.283Z,101222.50
2023-05-19T15:27:41.033Z,101214.81
2023-05-19T15:32:45.198Z,101211.44
2023-05-19T15:37:48.001Z,101209.66
2023-05-19T15:42:50.751Z,101206.78
2023-05-19T15:47:55.973Z,101213.41
2023-05-19T15:52:58.867Z,101203.41
2023-05-19T15:58:01.675Z,101204.63
2023-05-19T16:03:05.972Z,101194.22
2023-05-19T16:08:08.962Z,101175.69
2023-05-19T16:13:11.895Z,101173.81
2023-05-19T16:18:16.683Z,101180.47
2023-05-19T16:23:19.483Z,101180.59
2023-05-19T16:28:24.760Z,101179.47
2023-05-19T16:33:30.056Z,101170.81
2023-05-19T16:38:33.961Z,101168.84
2023-05-19T16:43:37.090Z,101163.44
2023-05-19T16:48:41.226Z,101169.00
2023-05-19T16:53:43.987Z,101169.63
2023-05-19T16:58:46.851Z,101166.56
2023-05-19T17:03:51.014Z,101171.91
2023-05-19T17:08:53.857Z,101172.81
2023-05-19T17:13:56.630Z,101163.84
2023-05-19T17:19:00.912Z,101169.13
2023-05-19T17:24:03.694Z,101171.06
2023-05-19T17:29:06.632Z,101170.94
2023-05-19T17:34:10.744Z,101169.03
2023-05-19T17:39:13.545Z,101169.22
2023-05-19T17:44:16.360Z,101167.97
2023-05-19T17:49:22.931Z,101173.06
2023-05-19T17:54:27.367Z,101171.94
2023-05-19T17:59:31.299Z,101181.38
2023-05-19T18:04:36.385Z,101179.94
2023-05-19T18:09:39.802Z,101177.81
2023-05-19T18:14:42.568Z,101189.31
2023-05-19T18:19:46.740Z,101186.09
2023-05-19T18:24:49.530Z,101189.75
2023-05-19T18:29:52.301Z,101197.97
2023-05-19T18:34:56.470Z,101206.94
2023-05-19T18:39:59.275Z,101198.38
2023-05-19T18:45:02.096Z,101197.38
2023-05-19T18:50:08.088Z,101193.59
2023-05-19T18:55:11.303Z,101199.28
2023-05-19T19:00:14.964Z,101201.56
2023-05-19T19:05:19.285Z,101203.47
2023-05-19T19:10:22.096Z,101211.25
2023-05-19T19:15:25.408Z,101217.25
2023-05-19T19:20:29.635Z,101221.81
2023-05-19T19:25:32.446Z,101229.34
2023-05-19T19:30:35.682Z,101236.47
2023-05-19T19:35:40.062Z,101235.22
2023-05-19T19:40:42.856Z,101242.94
2023-05-19T19:45:45.655Z,101243.56
2023-05-19T19:50:54.658Z,101244.41
2023-05-19T19:55:58.779Z,101245.84
2023-05-19T20:01:03.677Z,101248.41
2023-05-19T20:06:07.914Z,101248.97
2023-05-19T20:11:10.850Z,101246.53
2023-05-19T20:16:13.697Z,101241.75
2023-05-19T20:21:18.136Z,101249.81
2023-05-19T20:26:22.441Z,101251.72
2023-05-19T20:31:25.848Z,101256.88
2023-05-19T20:36:30.066Z,101255.16
2023-05-19T20:41:32.876Z,101262.38
2023-05-19T20:46:35.684Z,101257.47
2023-05-19T20:51:39.894Z,101256.06
2023-05-19T20:56:42.713Z,101254.06
2023-05-19T21:01:46.568Z,101255.84
2023-05-19T21:06:50.901Z,101251.19
2023-05-19T21:11:54.166Z,101257.66
2023-05-19T21:16:57.281Z,101260.41
2023-05-19T21:22:01.550Z,101262.63
2023-05-19T21:27:04.479Z,101266.13
2023-05-19T21:32:07.943Z,101265.69
2023-05-19T21:37:12.165Z,101266.50
2023-05-19T21:42:15.056Z,101270.13
2023-05-19T21:47:17.970Z,101278.13
2023-05-19T21:52:22.745Z,101274.81
2023-05-19T21:57:25.546Z,101274.91
2023-05-19T22:02:28.370Z,101266.66
2023-05-19T22:07:32.592Z,101262.25
2023-05-19T22:12:35.460Z,101260.06
2023-05-19T22:17:38.300Z,101254.13
2023-05-19T22:22:42.475Z,101263.72
2023-05-19T22:27:45.231Z,101252.81
2023-05-19T22:32:48.002Z,101257.06
2023-05-19T22:37:52.162Z,101261.75
2023-05-19T22:42:54.923Z,101259.91
2023-05-19T22:47:57.734Z,101267.38
2023-05-19T22:53:01.868Z,101264.72
2023-05-19T22:58:04.688Z,101263.53
2023-05-19T23:03:07.512Z,101257.13
2023-05-19T23:08:11.700Z,101251.47
2023-05-19T23:13:15.918Z,101267.47
2023-05-19T23:18:18.736Z,101257.03
2023-05-19T23:23:22.933Z,101258.00
2023-05-19T23:28:25.747Z,101261.22
2023-05-19T23:33:28.594Z,101253.25
2023-05-19T23:38:32.786Z,101251.72
2023-05-19T23:43:35.844Z,101264.13
2023-05-19T23:48:39.358Z,101262.44
2023-05-19T23:53:43.508Z,101268.22
2023-05-19T23:58:46.455Z,101265.22
